sensor_id;sensor_type;location;lat;lon;timestamp;P1;durP1;ratioP1;P2;durP2;ratioP2
41139;SDS011;26881;48.784;9.192;2023-02-14T00:01:11;28.20;;;19.60;;
41139;SDS011;26881;48.784;9.192;2023-02-14T00:06:33;29.10;;;19.83;;
41139;SDS011;26881;48.784;9.192;2023-02-14T00:11:55;26.37;;;18.27;;
41139;SDS011;26881;48.784;9.192;2023-02-14T00:17:17;26.87;;;18.43;;
41139;SDS011;26881;48.784;9.192;2023-02-14T00:22:39;26.73;;;18.07;;
41139;SDS011;26881;48.784;9.192;2023-02-14T00:28:01;28.37;;;18.07;;
41139;SDS011;26881;48.784;9.192;2023-02-14T00:33:22;26.43;;;18.37;;
41139;SDS011;26881;48.784;9.192;2023-02-14T00:38:44;29.83;;;19.83;;
41139;SDS011;26881;48.784;9.192;2023-02-14T00:44:06;29.50;;;19.33;;
41139;SDS011;26881;48.784;9.192;2023-02-14T00:49:29;25.80;;;18.00;;
41139;SDS011;26881;48.784;9.192;2023-02-14T00:54:50;24.73;;;17.73;;
41139;SDS011;26881;48.784;9.192;2023-02-14T01:00:12;26.23;;;18.37;;
41139;SDS011;26881;48.784;9.192;2023-02-14T01:05:34;29.07;;;18.40;;
41139;SDS011;26881;48.784;9.192;2023-02-14T01:10:56;26.23;;;18.37;;
41139;SDS011;26881;48.784;9.192;2023-02-14T01:16:20;28.77;;;19.07;;
41139;SDS011;26881;48.784;9.192;2023-02-14T01:21:42;26.50;;;17.27;;
41139;SDS011;26881;48.784;9.192;2023-02-14T01:27:04;24.77;;;17.67;;
41139;SDS011;26881;48.784;9.192;2023-02-14T01:32:28;25.43;;;18.83;;
41139;SDS011;26881;48.784;9.192;2023-02-14T01:37:51;27.07;;;18.67;;
41139;SDS011;26881;48.784;9.192;2023-02-14T01:43:13;27.03;;;19.73;;
41139;SDS011;26881;48.784;9.192;2023-02-14T01:48:36;27.37;;;18.60;;
41139;SDS011;26881;48.784;9.192;2023-02-14T01:53:58;27.30;;;18.87;;
41139;SDS011;26881;48.784;9.192;2023-02-14T01:59:22;26.90;;;18.10;;
41139;SDS011;26881;48.784;9.192;2023-02-14T02:04:47;33.40;;;20.60;;
41139;SDS011;26881;48.784;9.192;2023-02-14T02:10:11;26.97;;;17.80;;
41139;SDS011;26881;48.784;9.192;2023-02-14T02:27:13;26.13;;;17.80;;
41139;SDS011;26881;48.784;9.192;2023-02-14T02:38:45;28.83;;;19.53;;
41139;SDS011;26881;48.784;9.192;2023-02-14T02:56:29;25.97;;;18.47;;
41139;SDS011;26881;48.784;9.192;2023-02-14T03:07:53;25.53;;;18.33;;
41139;SDS011;26881;48.784;9.192;2023-02-14T03:13:27;29.07;;;19.17;;
41139;SDS011;26881;48.784;9.192;2023-02-14T03:19:09;30.63;;;19.70;;
41139;SDS011;26881;48.784;9.192;2023-02-14T03:24:58;29.10;;;21.23;;
41139;SDS011;26881;48.784;9.192;2023-02-14T03:30:41;30.23;;;21.13;;
41139;SDS011;26881;48.784;9.192;2023-02-14T03:36:07;29.60;;;20.80;;
41139;SDS011;26881;48.784;9.192;2023-02-14T03:41:36;32.70;;;20.63;;
41139;SDS011;26881;48.784;9.192;2023-02-14T03:47:07;31.03;;;21.47;;
41139;SDS011;26881;48.784;9.192;2023-02-14T03:52:33;34.47;;;22.37;;
41139;SDS011;26881;48.784;9.192;2023-02-14T03:58:02;30.77;;;22.17;;
41139;SDS011;26881;48.784;9.192;2023-02-14T04:03:29;31.90;;;21.60;;
41139;SDS011;26881;48.784;9.192;2023-02-14T04:08:52;34.17;;;21.93;;
41139;SDS011;26881;48.784;9.192;2023-02-14T04:14:15;32.33;;;21.00;;
41139;SDS011;26881;48.784;9.192;2023-02-14T04:19:37;30.17;;;21.27;;
41139;SDS011;26881;48.784;9.192;2023-02-14T04:24:58;32.90;;;20.50;;
41139;SDS011;26881;48.784;9.192;2023-02-14T04:30:20;29.80;;;20.67;;
41139;SDS011;26881;48.784;9.192;2023-02-14T04:35:43;33.03;;;20.10;;
41139;SDS011;26881;48.784;9.192;2023-02-14T04:41:05;32.57;;;19.60;;
41139;SDS011;26881;48.784;9.192;2023-02-14T04:46:26;24.93;;;18.60;;
41139;SDS011;26881;48.784;9.192;2023-02-14T04:51:48;28.67;;;19.00;;
41139;SDS011;26881;48.784;9.192;2023-02-14T04:57:10;26.40;;;17.90;;
41139;SDS011;26881;48.784;9.192;2023-02-14T05:02:32;27.57;;;19.53;;
41139;SDS011;26881;48.784;9.192;2023-02-14T05:07:53;36.60;;;21.37;;
41139;SDS011;26881;48.784;9.192;2023-02-14T05:13:15;32.53;;;21.27;;
41139;SDS011;26881;48.784;9.192;2023-02-14T05:18:38;32.67;;;21.63;;
41139;SDS011;26881;48.784;9.192;2023-02-14T05:24:00;29.80;;;20.93;;
41139;SDS011;26881;48.784;9.192;2023-02-14T05:29:22;32.10;;;21.53;;
41139;SDS011;26881;48.784;9.192;2023-02-14T05:34:43;35.50;;;21.90;;
41139;SDS011;26881;48.784;9.192;2023-02-14T05:40:05;30.37;;;20.80;;
41139;SDS011;26881;48.784;9.192;2023-02-14T05:45:28;31.33;;;20.80;;
41139;SDS011;26881;48.784;9.192;2023-02-14T05:50:50;32.87;;;21.77;;
41139;SDS011;26881;48.784;9.192;2023-02-14T05:56:12;31.57;;;21.27;;
41139;SDS011;26881;48.784;9.192;2023-02-14T06:01:34;34.90;;;22.50;;
41139;SDS011;26881;48.784;9.192;2023-02-14T06:06:56;32.63;;;23.10;;
41139;SDS011;26881;48.784;9.192;2023-02-14T06:12:17;34.80;;;21.60;;
41139;SDS011;26881;48.784;9.192;2023-02-14T06:17:39;31.43;;;21.27;;
41139;SDS011;26881;48.784;9.192;2023-02-14T06:23:01;37.03;;;22.03;;
41139;SDS011;26881;48.784;9.192;2023-02-14T06:28:23;32.47;;;22.43;;
41139;SDS011;26881;48.784;9.192;2023-02-14T06:33:44;29.33;;;21.17;;
41139;SDS011;26881;48.784;9.192;2023-02-14T06:39:06;40.13;;;23.47;;
41139;SDS011;26881;48.784;9.192;2023-02-14T06:44:28;38.27;;;23.23;;
41139;SDS011;26881;48.784;9.192;2023-02-14T06:49:50;33.00;;;23.00;;
41139;SDS011;26881;48.784;9.192;2023-02-14T06:55:11;35.70;;;22.93;;
41139;SDS011;26881;48.784;9.192;2023-02-14T07:00:34;36.57;;;24.07;;
41139;SDS011;26881;48.784;9.192;2023-02-14T07:05:56;39.93;;;23.33;;
41139;SDS011;26881;48.784;9.192;2023-02-14T07:11:18;33.50;;;22.67;;
41139;SDS011;26881;48.784;9.192;2023-02-14T07:16:40;34.40;;;22.43;;
41139;SDS011;26881;48.784;9.192;2023-02-14T07:22:02;31.60;;;22.23;;
41139;SDS011;26881;48.784;9.192;2023-02-14T07:27:24;34.70;;;23.67;;
41139;SDS011;26881;48.784;9.192;2023-02-14T07:32:46;37.50;;;23.63;;
41139;SDS011;26881;48.784;9.192;2023-02-14T07:38:09;35.07;;;23.50;;
41139;SDS011;26881;48.784;9.192;2023-02-14T07:43:30;37.37;;;23.10;;
41139;SDS011;26881;48.784;9.192;2023-02-14T07:48:54;33.60;;;23.50;;
41139;SDS011;26881;48.784;9.192;2023-02-14T07:54:16;37.70;;;22.30;;
41139;SDS011;26881;48.784;9.192;2023-02-14T07:59:40;37.27;;;23.00;;
41139;SDS011;26881;48.784;9.192;2023-02-14T08:05:02;33.73;;;23.17;;
41139;SDS011;26881;48.784;9.192;2023-02-14T08:10:24;35.87;;;23.60;;
41139;SDS011;26881;48.784;9.192;2023-02-14T08:15:46;40.43;;;24.27;;
41139;SDS011;26881;48.784;9.192;2023-02-14T08:21:26;37.33;;;22.57;;
41139;SDS011;26881;48.784;9.192;2023-02-14T08:26:48;36.37;;;24.03;;
41139;SDS011;26881;48.784;9.192;2023-02-14T08:32:09;35.70;;;23.70;;
41139;SDS011;26881;48.784;9.192;2023-02-14T08:37:31;35.70;;;23.57;;
41139;SDS011;26881;48.784;9.192;2023-02-14T08:42:53;34.57;;;24.47;;
41139;SDS011;26881;48.784;9.192;2023-02-14T08:48:15;34.03;;;23.73;;
41139;SDS011;26881;48.784;9.192;2023-02-14T08:53:37;34.73;;;23.80;;
41139;SDS011;26881;48.784;9.192;2023-02-14T08:58:59;37.07;;;24.20;;
41139;SDS011;26881;48.784;9.192;2023-02-14T09:04:21;43.60;;;23.43;;
41139;SDS011;26881;48.784;9.192;2023-02-14T09:09:43;32.73;;;22.50;;
41139;SDS011;26881;48.784;9.192;2023-02-14T09:15:05;33.57;;;23.30;;
41139;SDS011;26881;48.784;9.192;2023-02-14T09:20:28;34.77;;;23.23;;
41139;SDS011;26881;48.784;9.192;2023-02-14T09:25:50;35.33;;;23.77;;
41139;SDS011;26881;48.784;9.192;2023-02-14T09:31:13;38.60;;;24.73;;
41139;SDS011;26881;48.784;9.192;2023-02-14T09:36:35;35.87;;;23.13;;
41139;SDS011;26881;48.784;9.192;2023-02-14T09:42:21;37.03;;;24.23;;
41139;SDS011;26881;48.784;9.192;2023-02-14T09:54:02;34.23;;;23.27;;
41139;SDS011;26881;48.784;9.192;2023-02-14T09:59:34;37.27;;;22.90;;
41139;SDS011;26881;48.784;9.192;2023-02-14T10:05:18;36.33;;;23.23;;
41139;SDS011;26881;48.784;9.192;2023-02-14T10:10:48;33.47;;;23.00;;
41139;SDS011;26881;48.784;9.192;2023-02-14T10:16:30;35.70;;;21.97;;
41139;SDS011;26881;48.784;9.192;2023-02-14T10:22:01;29.90;;;21.53;;
41139;SDS011;26881;48.784;9.192;2023-02-14T10:33:10;30.77;;;20.63;;
41139;SDS011;26881;48.784;9.192;2023-02-14T10:44:40;30.43;;;20.77;;
41139;SDS011;26881;48.784;9.192;2023-02-14T11:01:13;30.10;;;20.20;;
41139;SDS011;26881;48.784;9.192;2023-02-14T11:06:37;30.73;;;21.17;;
41139;SDS011;26881;48.784;9.192;2023-02-14T11:11:59;26.80;;;19.47;;
41139;SDS011;26881;48.784;9.192;2023-02-14T11:17:28;29.50;;;20.10;;
41139;SDS011;26881;48.784;9.192;2023-02-14T11:22:51;31.77;;;21.27;;
41139;SDS011;26881;48.784;9.192;2023-02-14T11:28:13;29.90;;;19.37;;
41139;SDS011;26881;48.784;9.192;2023-02-14T11:33:38;33.50;;;20.43;;
41139;SDS011;26881;48.784;9.192;2023-02-14T11:39:10;28.53;;;19.00;;
41139;SDS011;26881;48.784;9.192;2023-02-14T11:44:52;29.17;;;19.70;;
41139;SDS011;26881;48.784;9.192;2023-02-14T11:50:21;26.00;;;19.07;;
41139;SDS011;26881;48.784;9.192;2023-02-14T11:55:45;28.00;;;19.40;;
41139;SDS011;26881;48.784;9.192;2023-02-14T12:01:20;25.67;;;18.63;;
41139;SDS011;26881;48.784;9.192;2023-02-14T12:06:45;24.83;;;18.00;;
41139;SDS011;26881;48.784;9.192;2023-02-14T12:12:15;19.43;;;15.43;;
41139;SDS011;26881;48.784;9.192;2023-02-14T12:17:38;22.63;;;17.57;;
41139;SDS011;26881;48.784;9.192;2023-02-14T12:28:48;24.65;;;18.15;;
41139;SDS011;26881;48.784;9.192;2023-02-14T12:34:17;24.83;;;17.58;;
41139;SDS011;26881;48.784;9.192;2023-02-14T12:56:49;24.05;;;18.77;;
41139;SDS011;26881;48.784;9.192;2023-02-14T13:02:28;22.40;;;17.95;;
41139;SDS011;26881;48.784;9.192;2023-02-14T13:08:22;24.55;;;17.92;;
41139;SDS011;26881;48.784;9.192;2023-02-14T13:14:33;25.27;;;18.15;;
41139;SDS011;26881;48.784;9.192;2023-02-14T13:20:05;23.73;;;17.42;;
41139;SDS011;26881;48.784;9.192;2023-02-14T13:25:56;25.88;;;19.30;;
41139;SDS011;26881;48.784;9.192;2023-02-14T13:31:22;26.38;;;18.38;;
41139;SDS011;26881;48.784;9.192;2023-02-14T13:36:44;31.58;;;20.23;;
41139;SDS011;26881;48.784;9.192;2023-02-14T13:42:07;24.90;;;18.25;;
41139;SDS011;26881;48.784;9.192;2023-02-14T13:47:29;26.63;;;18.58;;
41139;SDS011;26881;48.784;9.192;2023-02-14T13:52:51;30.38;;;18.95;;
41139;SDS011;26881;48.784;9.192;2023-02-14T13:58:16;25.52;;;18.98;;
41139;SDS011;26881;48.784;9.192;2023-02-14T14:09:03;29.02;;;19.65;;
41139;SDS011;26881;48.784;9.192;2023-02-14T14:14:45;26.27;;;19.27;;
41139;SDS011;26881;48.784;9.192;2023-02-14T14:25:49;31.60;;;19.88;;
41139;SDS011;26881;48.784;9.192;2023-02-14T14:31:11;25.52;;;19.02;;
41139;SDS011;26881;48.784;9.192;2023-02-14T14:36:34;23.45;;;19.08;;
41139;SDS011;26881;48.784;9.192;2023-02-14T14:42:03;26.02;;;19.85;;
41139;SDS011;26881;48.784;9.192;2023-02-14T14:47:28;29.20;;;19.27;;
41139;SDS011;26881;48.784;9.192;2023-02-14T14:53:02;25.73;;;19.08;;
41139;SDS011;26881;48.784;9.192;2023-02-14T14:58:28;25.75;;;19.45;;
41139;SDS011;26881;48.784;9.192;2023-02-14T15:03:51;27.58;;;19.20;;
41139;SDS011;26881;48.784;9.192;2023-02-14T15:09:18;28.27;;;19.75;;
41139;SDS011;26881;48.784;9.192;2023-02-14T15:14:45;25.38;;;20.23;;
41139;SDS011;26881;48.784;9.192;2023-02-14T15:20:18;29.63;;;20.60;;
41139;SDS011;26881;48.784;9.192;2023-02-14T15:25:42;26.85;;;21.80;;
41139;SDS011;26881;48.784;9.192;2023-02-14T15:31:07;30.95;;;21.08;;
41139;SDS011;26881;48.784;9.192;2023-02-14T15:36:30;28.05;;;21.05;;
41139;SDS011;26881;48.784;9.192;2023-02-14T15:41:54;29.77;;;19.90;;
41139;SDS011;26881;48.784;9.192;2023-02-14T15:47:18;30.00;;;20.42;;
41139;SDS011;26881;48.784;9.192;2023-02-14T15:52:40;27.73;;;20.42;;
41139;SDS011;26881;48.784;9.192;2023-02-14T15:58:03;27.73;;;20.25;;
41139;SDS011;26881;48.784;9.192;2023-02-14T16:03:35;28.25;;;20.50;;
41139;SDS011;26881;48.784;9.192;2023-02-14T16:09:00;26.70;;;20.85;;
41139;SDS011;26881;48.784;9.192;2023-02-14T16:19:53;30.00;;;21.92;;
41139;SDS011;26881;48.784;9.192;2023-02-14T16:25:15;28.48;;;21.20;;
41139;SDS011;26881;48.784;9.192;2023-02-14T16:30:37;31.80;;;22.53;;
41139;SDS011;26881;48.784;9.192;2023-02-14T16:36:14;29.33;;;22.00;;
41139;SDS011;26881;48.784;9.192;2023-02-14T16:41:43;31.27;;;22.10;;
41139;SDS011;26881;48.784;9.192;2023-02-14T16:47:11;29.55;;;22.25;;
41139;SDS011;26881;48.784;9.192;2023-02-14T16:52:33;29.58;;;21.13;;
41139;SDS011;26881;48.784;9.192;2023-02-14T16:57:56;29.60;;;21.83;;
41139;SDS011;26881;48.784;9.192;2023-02-14T17:03:20;27.10;;;20.73;;
41139;SDS011;26881;48.784;9.192;2023-02-14T17:08:42;27.20;;;21.77;;
41139;SDS011;26881;48.784;9.192;2023-02-14T17:14:06;36.33;;;24.50;;
41139;SDS011;26881;48.784;9.192;2023-02-14T17:19:29;33.20;;;23.13;;
41139;SDS011;26881;48.784;9.192;2023-02-14T17:24:52;31.52;;;23.55;;
41139;SDS011;26881;48.784;9.192;2023-02-14T17:30:17;33.23;;;22.97;;
41139;SDS011;26881;48.784;9.192;2023-02-14T17:35:39;33.93;;;22.20;;
41139;SDS011;26881;48.784;9.192;2023-02-14T17:41:17;30.38;;;22.48;;
41139;SDS011;26881;48.784;9.192;2023-02-14T17:46:43;32.70;;;24.67;;
41139;SDS011;26881;48.784;9.192;2023-02-14T17:52:06;33.80;;;24.70;;
41139;SDS011;26881;48.784;9.192;2023-02-14T17:57:28;37.77;;;25.57;;
41139;SDS011;26881;48.784;9.192;2023-02-14T18:02:49;30.93;;;22.90;;
41139;SDS011;26881;48.784;9.192;2023-02-14T18:08:11;34.83;;;23.63;;
41139;SDS011;26881;48.784;9.192;2023-02-14T18:13:33;35.87;;;25.50;;
41139;SDS011;26881;48.784;9.192;2023-02-14T18:18:55;37.57;;;24.60;;
41139;SDS011;26881;48.784;9.192;2023-02-14T18:24:17;36.13;;;24.30;;
41139;SDS011;26881;48.784;9.192;2023-02-14T18:29:40;37.70;;;25.83;;
41139;SDS011;26881;48.784;9.192;2023-02-14T18:35:02;30.53;;;23.57;;
41139;SDS011;26881;48.784;9.192;2023-02-14T18:40:24;37.40;;;24.00;;
41139;SDS011;26881;48.784;9.192;2023-02-14T18:45:46;31.10;;;23.40;;
41139;SDS011;26881;48.784;9.192;2023-02-14T18:51:09;33.63;;;25.20;;
41139;SDS011;26881;48.784;9.192;2023-02-14T18:56:35;33.03;;;24.73;;
41139;SDS011;26881;48.784;9.192;2023-02-14T19:01:58;37.13;;;26.67;;
41139;SDS011;26881;48.784;9.192;2023-02-14T19:07:20;35.90;;;26.63;;
41139;SDS011;26881;48.784;9.192;2023-02-14T19:12:42;36.23;;;26.30;;
41139;SDS011;26881;48.784;9.192;2023-02-14T19:18:03;39.47;;;24.97;;
41139;SDS011;26881;48.784;9.192;2023-02-14T19:23:25;36.70;;;25.87;;
41139;SDS011;26881;48.784;9.192;2023-02-14T19:28:48;44.47;;;29.80;;
41139;SDS011;26881;48.784;9.192;2023-02-14T19:34:15;44.00;;;29.80;;
41139;SDS011;26881;48.784;9.192;2023-02-14T19:39:39;37.47;;;25.57;;
41139;SDS011;26881;48.784;9.192;2023-02-14T19:45:01;37.73;;;26.20;;
41139;SDS011;26881;48.784;9.192;2023-02-14T19:50:22;37.03;;;26.43;;
41139;SDS011;26881;48.784;9.192;2023-02-14T19:55:46;35.53;;;25.60;;
41139;SDS011;26881;48.784;9.192;2023-02-14T20:01:08;32.60;;;24.10;;
41139;SDS011;26881;48.784;9.192;2023-02-14T20:06:42;38.47;;;24.67;;
41139;SDS011;26881;48.784;9.192;2023-02-14T20:12:05;38.00;;;24.57;;
41139;SDS011;26881;48.784;9.192;2023-02-14T20:17:27;33.20;;;25.43;;
41139;SDS011;26881;48.784;9.192;2023-02-14T20:22:49;38.40;;;25.47;;
41139;SDS011;26881;48.784;9.192;2023-02-14T20:28:11;35.27;;;25.93;;
41139;SDS011;26881;48.784;9.192;2023-02-14T20:33:32;33.63;;;24.23;;
41139;SDS011;26881;48.784;9.192;2023-02-14T20:38:58;36.43;;;25.03;;
41139;SDS011;26881;48.784;9.192;2023-02-14T20:44:21;37.97;;;26.73;;
41139;SDS011;26881;48.784;9.192;2023-02-14T20:49:43;37.87;;;26.03;;
41139;SDS011;26881;48.784;9.192;2023-02-14T20:55:05;39.67;;;25.00;;
41139;SDS011;26881;48.784;9.192;2023-02-14T21:00:28;35.63;;;24.60;;
41139;SDS011;26881;48.784;9.192;2023-02-14T21:05:50;39.40;;;27.10;;
41139;SDS011;26881;48.784;9.192;2023-02-14T21:11:13;40.53;;;27.13;;
41139;SDS011;26881;48.784;9.192;2023-02-14T21:16:36;34.10;;;25.70;;
41139;SDS011;26881;48.784;9.192;2023-02-14T21:21:58;42.73;;;27.47;;
41139;SDS011;26881;48.784;9.192;2023-02-14T21:27:20;36.90;;;25.93;;
41139;SDS011;26881;48.784;9.192;2023-02-14T21:32:42;38.53;;;26.23;;
41139;SDS011;26881;48.784;9.192;2023-02-14T21:38:03;35.73;;;25.50;;
41139;SDS011;26881;48.784;9.192;2023-02-14T21:43:25;37.27;;;26.17;;
41139;SDS011;26881;48.784;9.192;2023-02-14T21:48:47;38.73;;;26.30;;
41139;SDS011;26881;48.784;9.192;2023-02-14T21:54:27;37.80;;;26.27;;
41139;SDS011;26881;48.784;9.192;2023-02-14T21:59:49;35.97;;;26.70;;
41139;SDS011;26881;48.784;9.192;2023-02-14T22:05:10;40.20;;;24.93;;
41139;SDS011;26881;48.784;9.192;2023-02-14T22:10:32;34.83;;;25.00;;
41139;SDS011;26881;48.784;9.192;2023-02-14T22:15:59;35.90;;;24.77;;
41139;SDS011;26881;48.784;9.192;2023-02-14T22:21:25;38.53;;;24.77;;
41139;SDS011;26881;48.784;9.192;2023-02-14T22:26:48;36.93;;;26.57;;
41139;SDS011;26881;48.784;9.192;2023-02-14T22:32:09;43.27;;;27.00;;
41139;SDS011;26881;48.784;9.192;2023-02-14T22:37:31;39.43;;;27.47;;
41139;SDS011;26881;48.784;9.192;2023-02-14T22:42:53;45.37;;;28.83;;
41139;SDS011;26881;48.784;9.192;2023-02-14T22:48:15;40.03;;;26.77;;
41139;SDS011;26881;48.784;9.192;2023-02-14T22:53:38;40.20;;;27.40;;
41139;SDS011;26881;48.784;9.192;2023-02-14T22:59:04;38.00;;;26.27;;
41139;SDS011;26881;48.784;9.192;2023-02-14T23:04:27;38.27;;;25.37;;
41139;SDS011;26881;48.784;9.192;2023-02-14T23:09:52;43.43;;;26.73;;
41139;SDS011;26881;48.784;9.192;2023-02-14T23:15:14;42.10;;;27.27;;
41139;SDS011;26881;48.784;9.192;2023-02-14T23:20:54;36.90;;;26.03;;
41139;SDS011;26881;48.784;9.192;2023-02-14T23:26:34;40.00;;;25.97;;
41139;SDS011;26881;48.784;9.192;2023-02-14T23:31:57;38.17;;;24.63;;
41139;SDS011;26881;48.784;9.192;2023-02-14T23:37:19;39.80;;;25.60;;
41139;SDS011;26881;48.784;9.192;2023-02-14T23:42:41;43.10;;;25.87;;
41139;SDS011;26881;48.784;9.192;2023-02-14T23:48:03;39.70;;;25.13;;
41139;SDS011;26881;48.784;9.192;2023-02-14T23:53:25;36.97;;;25.70;;
41139;SDS011;26881;48.784;9.192;2023-02-14T23:58:47;38.37;;;25.80;;
